aviador You're here:

LEVX Decoded Metar

VIGO in SPAIN
Report Time2018-02-20 03:30:00
UTC Time2018-02-20 03:53:59
Flight Rules vfr VFR
Wind060° at 03 kt
W.Decomp.*RWY 02: 2.2 kt HW 2.0 kt RCW
W.Rank060° ranks 24
Current wind is below 060° avg. (5.4)
Visibility9999 m
Phenomena:N/A
Clouds:N/A
Expected CloudBase > 1,200 ft AGL from Temp-Dew spread
CeilingNone
Temp08°C (ISA -5)
Dew Point05°C (82% RH)
AAT5.8°C
QNH1022 hPa
Density Alt20 ft
Elevation840 ft
Report Wrong Elevation
Raw Report
LEVX 200330Z 06003KT 350V110 CAVOK 08/05 Q1022 NOSIG=

Extra information for LEVX:More info

Metar Taf Metar & Taf Last 4 Metars F.Rules Stats Wind Profile Meteogram Temp Stats Airport Information Weather charts Add Link Nearby VenuesMetar ALERT Operation Metar Decoded Social comments